Time;durP1;ratioP1;P1;durP2;ratioP2;P2;SDS_P1;SDS_P2;PMS_P1;PMS_P2;Temp;Humidity;BMP_temperature;BMP_pressure;BME280_temperature;BME280_humidity;BME280_pressure;Samples;Min_cycle;Max_cycle;Signal;HPM_P1;HPM_P2
2021/11/14 00:01:29;;;;;;;170.98;46.92;;;;;;;4.71;100.00;100611.63;5095004;28;20070;-70
2021/11/14 00:04:00;;;;;;;179.18;48.03;;;;;;;4.55;100.00;100617.38;5094278;28;20497;-70
2021/11/14 00:06:29;;;;;;;174.25;49.08;;;;;;;4.72;100.00;100616.00;5094992;28;20047;-70
2021/11/14 00:08:57;;;;;;;165.27;44.78;;;;;;;4.77;100.00;100603.50;5094509;28;20075;-71
2021/11/14 00:11:26;;;;;;;165.05;44.97;;;;;;;4.84;100.00;100607.72;5094869;28;20044;-70
2021/11/14 00:13:58;;;;;;;167.57;47.08;;;;;;;4.70;100.00;100607.25;5094173;28;20073;-71
2021/11/14 00:16:28;;;;;;;168.20;44.17;;;;;;;4.79;100.00;100606.97;5094285;28;20443;-70
2021/11/14 00:18:57;;;;;;;181.48;48.28;;;;;;;4.70;100.00;100610.75;5094028;28;20052;-71
2021/11/14 00:21:28;;;;;;;160.15;46.10;;;;;;;4.74;100.00;100601.84;5094502;28;20051;-70
2021/11/14 00:23:57;;;;;;;170.02;46.10;;;;;;;4.67;100.00;100599.44;5094401;28;20474;-71
2021/11/14 00:26:26;;;;;;;168.18;45.30;;;;;;;4.76;100.00;100599.16;5094566;28;20067;-73
2021/11/14 00:28:54;;;;;;;154.32;44.40;;;;;;;4.64;100.00;100595.13;5094249;28;20371;-77
2021/11/14 00:31:22;;;;;;;166.77;45.63;;;;;;;4.71;100.00;100601.06;5094406;28;20051;-73
2021/11/14 00:33:53;;;;;;;147.77;44.92;;;;;;;4.74;100.00;100600.97;5094385;28;20054;-73
2021/11/14 00:36:28;;;;;;;159.57;45.33;;;;;;;4.67;100.00;100604.72;5094695;28;20094;-73
2021/11/14 00:38:57;;;;;;;168.05;44.45;;;;;;;4.62;100.00;100601.31;5094015;28;20051;-74
2021/11/14 00:41:26;;;;;;;156.82;43.63;;;;;;;4.59;100.00;100602.28;5093852;28;20040;-72
2021/11/14 00:43:54;;;;;;;163.82;47.65;;;;;;;4.53;100.00;100598.03;5093926;28;20105;-73
2021/11/14 00:46:23;;;;;;;155.02;43.90;;;;;;;4.56;100.00;100597.97;5094107;28;20040;-71
2021/11/14 00:48:52;;;;;;;150.18;44.35;;;;;;;4.59;100.00;100592.59;5094046;28;20044;-71
2021/11/14 00:51:28;;;;;;;151.95;41.42;;;;;;;4.71;100.00;100595.75;5093732;28;20044;-71
2021/11/14 00:53:56;;;;;;;158.18;45.63;;;;;;;4.53;100.00;100597.19;5093705;28;20059;-76
2021/11/14 00:56:25;;;;;;;150.15;43.63;;;;;;;4.55;100.00;100600.66;5093619;28;20042;-71
2021/11/14 00:58:54;;;;;;;161.68;47.60;;;;;;;4.59;100.00;100597.88;5093795;28;20051;-71
2021/11/14 01:01:23;;;;;;;165.32;44.15;;;;;;;4.68;100.00;100596.72;5094025;28;20048;-70
2021/11/14 01:03:54;;;;;;;150.70;42.53;;;;;;;4.67;100.00;100594.16;5093541;28;20570;-70
2021/11/14 01:06:22;;;;;;;180.10;48.38;;;;;;;4.54;100.00;100602.44;5093971;28;20051;-71
2021/11/14 01:08:51;;;;;;;182.70;49.13;;;;;;;4.45;100.00;100594.78;5093745;28;20036;-70
2021/11/14 01:11:19;;;;;;;157.02;45.03;;;;;;;4.54;100.00;100594.53;5093342;28;20044;-71
2021/11/14 01:13:47;;;;;;;163.45;44.42;;;;;;;4.68;100.00;100593.22;5093669;28;20118;-71
2021/11/14 01:16:19;;;;;;;165.82;44.55;;;;;;;4.71;100.00;100598.41;5093175;28;20044;-71
2021/11/14 01:18:47;;;;;;;164.27;44.58;;;;;;;4.54;100.00;100598.94;5093446;28;20571;-71
2021/11/14 01:21:18;;;;;;;172.63;48.50;;;;;;;4.46;100.00;100611.50;5092907;28;20127;-72
2021/11/14 01:23:50;;;;;;;166.93;43.83;;;;;;;4.47;100.00;100614.09;5093766;28;20162;-70
2021/11/14 01:26:19;;;;;;;169.07;47.88;;;;;;;4.54;100.00;100601.59;5093273;28;20040;-70
2021/11/14 01:28:48;;;;;;;167.30;43.40;;;;;;;4.53;100.00;100592.75;5093513;28;20122;-70
2021/11/14 01:31:16;;;;;;;171.50;46.83;;;;;;;4.51;100.00;100594.59;5093058;28;20047;-70
2021/11/14 01:33:44;;;;;;;176.18;44.55;;;;;;;4.50;100.00;100598.16;5093327;28;20086;-70
2021/11/14 01:36:13;;;;;;;172.05;45.40;;;;;;;4.43;100.00;100590.44;5092577;28;20542;-71
2021/11/14 01:38:42;;;;;;;164.43;47.00;;;;;;;4.30;100.00;100584.66;5091922;28;20052;-71
2021/11/14 01:41:13;;;;;;;161.73;45.55;;;;;;;4.30;100.00;100584.66;5091980;28;20401;-69
2021/11/14 01:43:45;;;;;;;167.60;44.38;;;;;;;4.31;100.00;100579.34;5093311;28;20040;-69
2021/11/14 01:46:14;;;;;;;181.98;45.67;;;;;;;4.36;100.00;100584.50;5092975;28;20051;-69
2021/11/14 01:48:43;;;;;;;152.75;42.30;;;;;;;4.46;100.00;100583.31;5093173;28;20040;-69
2021/11/14 01:51:12;;;;;;;152.68;41.42;;;;;;;4.41;100.00;100592.28;5092574;28;20040;-70
2021/11/14 01:53:42;;;;;;;152.05;43.70;;;;;;;4.45;100.00;100600.06;5093218;28;20048;-70
2021/11/14 01:56:14;;;;;;;162.25;44.20;;;;;;;4.41;100.00;100603.69;5093083;28;20048;-71
2021/11/14 01:58:44;;;;;;;151.38;44.88;;;;;;;4.42;100.00;100600.16;5093188;28;20043;-71
2021/11/14 02:01:16;;;;;;;158.27;45.33;;;;;;;4.49;100.00;100601.69;5092721;28;20044;-71
2021/11/14 02:03:47;;;;;;;150.25;41.30;;;;;;;4.52;100.00;100601.59;5092832;28;20036;-70
2021/11/14 02:06:16;;;;;;;149.85;39.70;;;;;;;4.57;100.00;100604.13;5092783;28;20078;-71
2021/11/14 02:08:46;;;;;;;143.95;42.78;;;;;;;4.55;100.00;100606.81;5093305;28;20071;-70
2021/11/14 02:11:17;;;;;;;132.48;38.38;;;;;;;4.62;100.00;100604.84;5097078;28;20454;-70
2021/11/14 02:13:48;;;;;;;125.50;37.75;;;;;;;4.65;100.00;100601.25;5096890;28;20051;-70
2021/11/14 02:16:20;;;;;;;140.05;39.72;;;;;;;4.51;100.00;100596.38;5096714;28;20469;-71
2021/11/14 02:18:48;;;;;;;150.30;43.33;;;;;;;4.53;100.00;100597.19;5096848;28;20051;-70
2021/11/14 02:21:18;;;;;;;130.48;38.45;;;;;;;4.53;100.00;100598.03;5096297;28;20066;-71
2021/11/14 02:23:46;;;;;;;142.73;40.80;;;;;;;4.52;100.00;100600.75;5096491;28;20123;-69
2021/11/14 02:26:15;;;;;;;138.48;40.40;;;;;;;4.63;100.00;100596.00;5096507;28;20054;-70
2021/11/14 02:28:44;;;;;;;133.95;38.83;;;;;;;4.56;100.00;100599.75;5095523;28;20051;-70
2021/11/14 02:31:12;;;;;;;130.18;39.22;;;;;;;4.63;100.00;100600.41;5096366;28;20060;-70
2021/11/14 02:33:41;;;;;;;123.82;38.33;;;;;;;4.76;100.00;100599.16;5096387;28;20040;-70
2021/11/14 02:36:11;;;;;;;134.40;38.47;;;;;;;4.51;100.00;100605.16;5095967;28;20062;-71
2021/11/14 02:38:43;;;;;;;135.02;39.17;;;;;;;4.46;100.00;100596.53;5096774;28;20048;-70
2021/11/14 02:41:13;;;;;;;128.38;38.40;;;;;;;4.63;100.00;100603.06;5096332;28;20407;-71
2021/11/14 02:43:44;;;;;;;131.70;37.55;;;;;;;4.56;100.00;100603.25;5096613;28;20557;-71
2021/11/14 02:46:14;;;;;;;124.15;36.92;;;;;;;4.65;100.00;100596.84;5096200;28;20051;-71
2021/11/14 02:48:43;;;;;;;128.48;38.55;;;;;;;4.46;100.00;100583.31;5096126;28;20047;-71
2021/11/14 02:51:18;;;;;;;123.55;37.72;;;;;;;4.52;100.00;100580.47;5096077;28;20036;-70
2021/11/14 02:53:48;;;;;;;125.72;39.70;;;;;;;4.59;100.00;100587.31;5096004;28;20056;-70
2021/11/14 02:56:17;;;;;;;134.82;38.05;;;;;;;4.62;100.00;100596.03;5095850;28;20074;-70
2021/11/14 02:58:46;;;;;;;116.57;36.63;;;;;;;4.68;100.00;100590.59;5096212;28;20123;-71
2021/11/14 03:01:20;;;;;;;129.13;37.00;;;;;;;4.59;100.00;100604.94;5095490;28;20054;-71
2021/11/14 03:03:54;;;;;;;125.20;38.88;;;;;;;4.51;100.00;100613.09;5096361;28;20444;-71
2021/11/14 03:06:25;;;;;;;112.13;34.03;;;;;;;4.62;100.00;100617.19;5095828;28;20048;-71
2021/11/14 03:08:55;;;;;;;112.97;36.78;;;;;;;4.55;100.00;100620.03;5096180;28;20435;-71
2021/11/14 03:11:23;;;;;;;116.95;36.75;;;;;;;4.80;100.00;100619.28;5095406;28;20504;-71
2021/11/14 03:13:51;;;;;;;115.30;37.65;;;;;;;4.66;100.00;100622.34;5095967;28;20040;-71
2021/11/14 03:16:22;;;;;;;111.55;38.33;;;;;;;4.55;100.00;100617.38;5095530;28;20095;-72
2021/11/14 03:18:50;;;;;;;99.43;35.80;;;;;;;4.76;100.00;100618.50;5095551;28;20481;-71
2021/11/14 03:21:19;;;;;;;104.45;36.15;;;;;;;4.74;100.00;100617.69;5094912;28;20047;-71
2021/11/14 03:23:48;;;;;;;122.00;37.45;;;;;;;4.66;100.00;100618.84;5095914;28;20131;-71
2021/11/14 03:26:18;;;;;;;106.68;35.67;;;;;;;4.65;100.00;100614.47;5095066;28;20047;-71
2021/11/14 03:28:46;;;;;;;108.28;35.85;;;;;;;4.73;100.00;100607.16;5095531;28;20051;-71
2021/11/14 03:31:15;;;;;;;108.40;35.63;;;;;;;4.62;100.00;100614.53;5095020;28;20118;-71
2021/11/14 03:33:44;;;;;;;112.97;36.95;;;;;;;4.62;100.00;100610.13;5095277;28;20105;-71
2021/11/14 03:36:18;;;;;;;109.53;35.85;;;;;;;4.74;100.00;100617.69;5095138;28;20048;-71
2021/11/14 03:38:49;;;;;;;110.20;35.88;;;;;;;4.63;100.00;100625.06;5095304;28;20046;-70
2021/11/14 03:41:21;;;;;;;110.00;37.22;;;;;;;4.68;100.00;100627.56;5095134;28;20040;-71
2021/11/14 03:43:51;;;;;;;104.07;32.72;;;;;;;4.84;100.00;100626.22;5095193;28;20123;-71
2021/11/14 03:46:20;;;;;;;108.25;36.55;;;;;;;4.65;100.00;100628.53;5093958;28;20052;-71
2021/11/14 03:48:51;;;;;;;113.25;37.40;;;;;;;4.71;100.00;100627.47;5095299;28;20433;-71
2021/11/14 03:51:21;;;;;;;107.57;37.05;;;;;;;4.58;100.00;100638.41;5094689;28;20044;-71
2021/11/14 03:53:50;;;;;;;106.03;35.03;;;;;;;4.71;100.00;100640.69;5095153;28;20056;-71
2021/11/14 03:56:19;;;;;;;107.55;35.70;;;;;;;4.64;100.00;100633.88;5094442;28;20040;-71
2021/11/14 03:58:49;;;;;;;98.78;36.08;;;;;;;4.90;100.00;100639.22;5094791;28;20051;-71
2021/11/14 04:01:21;;;;;;;110.70;36.58;;;;;;;4.70;100.00;100633.69;5094397;28;20123;-72
2021/11/14 04:03:52;;;;;;;116.85;37.40;;;;;;;4.68;100.00;100627.56;5095122;28;20044;-71
2021/11/14 04:06:21;;;;;;;113.95;35.38;;;;;;;4.75;100.00;100629.13;5094665;28;20040;-71
2021/11/14 04:08:49;;;;;;;109.65;34.90;;;;;;;4.63;100.00;100621.56;5094850;28;20032;-71
2021/11/14 04:11:19;;;;;;;112.32;37.00;;;;;;;4.68;100.00;100628.44;5094474;28;20040;-71
2021/11/14 04:13:47;;;;;;;110.13;32.97;;;;;;;4.78;100.00;100636.97;5093976;28;20053;-71
2021/11/14 04:16:15;;;;;;;107.75;34.72;;;;;;;4.68;100.00;100639.00;5094373;28;20048;-71
2021/11/14 04:18:44;;;;;;;119.88;35.20;;;;;;;4.65;100.00;100639.13;5094642;28;20048;-71
2021/11/14 04:21:12;;;;;;;114.93;34.85;;;;;;;4.74;100.00;100627.41;5092964;28;20067;-70
2021/11/14 04:23:40;;;;;;;116.45;33.35;;;;;;;4.74;100.00;100637.97;5094775;28;20374;-70
2021/11/14 04:26:09;;;;;;;114.93;33.35;;;;;;;4.66;100.00;100634.69;5094200;28;20048;-73
2021/11/14 04:28:41;;;;;;;117.97;37.55;;;;;;;4.57;100.00;100638.47;5094486;28;20128;-71
2021/11/14 04:31:09;;;;;;;117.43;34.38;;;;;;;4.47;100.00;100637.88;5094370;28;20047;-72
2021/11/14 04:33:37;;;;;;;117.93;35.42;;;;;;;4.44;100.00;100647.63;5094154;28;20374;-73
2021/11/14 04:36:06;;;;;;;115.30;35.60;;;;;;;4.50;100.00;100644.84;5094463;28;20040;-73
2021/11/14 04:38:36;;;;;;;108.85;32.60;;;;;;;4.65;100.00;100638.25;5093932;28;20093;-72
2021/11/14 04:41:05;;;;;;;109.60;34.45;;;;;;;4.57;100.00;100636.69;5094211;28;20400;-71
2021/11/14 04:43:34;;;;;;;117.80;35.20;;;;;;;4.60;100.00;100639.22;5093915;28;20068;-72
2021/11/14 04:46:03;;;;;;;109.22;33.25;;;;;;;4.71;100.00;100630.97;5094180;28;20048;-72
2021/11/14 04:48:32;;;;;;;111.15;34.30;;;;;;;4.63;100.00;100632.97;5093469;28;20048;-72
2021/11/14 04:51:00;;;;;;;110.57;33.38;;;;;;;4.66;100.00;100622.34;5094244;28;20051;-72
2021/11/14 04:53:28;;;;;;;115.32;34.80;;;;;;;4.47;100.00;100619.38;5093512;28;20052;-72
2021/11/14 04:55:56;;;;;;;127.38;34.60;;;;;;;4.44;100.00;100635.34;5094046;28;20073;-71
2021/11/14 04:58:24;;;;;;;116.18;35.85;;;;;;;4.47;100.00;100640.50;5093471;28;20044;-71
2021/11/14 05:00:54;;;;;;;124.78;36.05;;;;;;;4.59;100.00;100656.00;5093985;28;20388;-72
2021/11/14 05:03:24;;;;;;;116.78;35.20;;;;;;;4.53;100.00;100650.03;5093603;28;20101;-72
2021/11/14 05:05:56;;;;;;;113.68;35.70;;;;;;;4.44;100.00;100655.56;5093528;28;20093;-72
2021/11/14 05:08:24;;;;;;;119.30;36.08;;;;;;;4.44;100.00;100656.47;5093522;28;20416;-72
2021/11/14 05:10:53;;;;;;;132.38;38.20;;;;;;;4.55;100.00;100654.38;5093713;28;20042;-72
2021/11/14 05:13:21;;;;;;;119.72;36.83;;;;;;;4.55;100.00;100664.94;5093392;28;20465;-70
2021/11/14 05:15:50;;;;;;;122.53;37.92;;;;;;;4.60;100.00;100652.44;5093718;28;20044;-71
2021/11/14 05:18:18;;;;;;;116.47;37.75;;;;;;;4.66;100.00;100650.56;5093253;28;20047;-72
2021/11/14 05:20:48;;;;;;;117.88;34.00;;;;;;;4.83;100.00;100643.00;5093563;28;20085;-72
2021/11/14 05:23:16;;;;;;;118.35;36.25;;;;;;;4.81;100.00;100647.44;5092966;28;20044;-71
2021/11/14 05:25:45;;;;;;;108.60;33.10;;;;;;;4.81;100.00;100640.38;5093519;28;20117;-72
2021/11/14 05:28:14;;;;;;;115.97;34.33;;;;;;;4.72;100.00;100631.84;5093208;28;20098;-77
2021/11/14 05:30:43;;;;;;;115.72;36.65;;;;;;;4.69;100.00;100640.75;5093456;28;20397;-71
2021/11/14 05:33:11;;;;;;;115.78;36.42;;;;;;;4.58;100.00;100645.47;5093432;28;20040;-71
2021/11/14 05:35:40;;;;;;;120.18;36.50;;;;;;;4.57;100.00;100647.25;5093352;28;20039;-72
2021/11/14 05:38:10;;;;;;;130.52;37.00;;;;;;;4.54;100.00;100651.78;5092981;28;20040;-71
2021/11/14 05:40:39;;;;;;;127.10;38.28;;;;;;;4.64;100.00;100662.94;5092981;28;20477;-71
2021/11/14 05:43:07;;;;;;;126.90;37.13;;;;;;;4.63;100.00;100661.19;5092931;28;20077;-71
2021/11/14 05:45:36;;;;;;;126.78;38.47;;;;;;;4.70;100.00;100668.03;5092589;28;20501;-71
2021/11/14 05:48:05;;;;;;;121.85;36.95;;;;;;;4.70;100.00;100668.03;5093185;28;20424;-71
2021/11/14 05:50:34;;;;;;;122.00;38.33;;;;;;;4.77;100.00;100670.44;5092589;28;20048;-71
2021/11/14 05:53:03;;;;;;;121.75;37.38;;;;;;;4.79;100.00;100676.56;5093320;28;20047;-71
2021/11/14 05:55:33;;;;;;;128.40;36.83;;;;;;;4.76;100.00;100681.94;5092777;28;20371;-71
2021/11/14 05:58:04;;;;;;;128.35;37.85;;;;;;;4.84;100.00;100673.78;5093234;28;20072;-71
2021/11/14 06:00:43;;;;;;;122.63;37.88;;;;;;;4.82;100.00;100678.22;5092854;28;20051;-70
2021/11/14 06:03:23;;;;;;;131.32;39.30;;;;;;;4.68;100.00;100686.56;5093058;28;20066;-70
2021/11/14 06:05:51;;;;;;;126.20;37.50;;;;;;;4.88;100.00;100691.28;5093147;28;20032;-71
2021/11/14 06:08:21;;;;;;;122.50;36.88;;;;;;;4.90;100.00;100692.09;5092768;28;20036;-71
2021/11/14 06:10:52;;;;;;;131.82;38.42;;;;;;;4.82;100.00;100689.66;5093049;28;20055;-72
2021/11/14 06:13:21;;;;;;;124.68;36.60;;;;;;;4.78;100.00;100705.69;5092770;28;20381;-73
2021/11/14 06:15:50;;;;;;;123.25;35.15;;;;;;;4.92;100.00;100699.97;5092988;28;20040;-71
2021/11/14 06:18:19;;;;;;;125.00;36.85;;;;;;;4.80;100.00;100704.72;5092652;28;20048;-73
2021/11/14 06:20:48;;;;;;;120.20;35.67;;;;;;;4.88;100.00;100708.00;5092909;28;20044;-72
2021/11/14 06:23:17;;;;;;;137.00;37.20;;;;;;;4.92;100.00;100716.69;5092884;28;20048;-71
2021/11/14 06:25:45;;;;;;;124.28;36.67;;;;;;;4.84;100.00;100724.00;5092597;28;20048;-69
2021/11/14 06:28:14;;;;;;;132.90;38.17;;;;;;;4.85;100.00;100729.25;5091810;28;20051;-70
2021/11/14 06:30:43;;;;;;;125.28;37.88;;;;;;;4.84;100.00;100724.88;5092778;28;20125;-69
2021/11/14 06:33:11;;;;;;;133.68;37.70;;;;;;;4.80;100.00;100730.28;5092834;28;20044;-67
2021/11/14 06:35:40;;;;;;;126.28;37.38;;;;;;;4.82;100.00;100736.38;5124964;28;20105;-67
2021/11/14 06:38:08;;;;;;;122.70;37.97;;;;;;;4.77;100.00;100731.25;5092702;28;20048;-66
2021/11/14 06:40:37;;;;;;;124.20;37.30;;;;;;;4.87;100.00;100730.06;5092382;28;20062;-66
2021/11/14 06:43:05;;;;;;;123.10;35.20;;;;;;;4.98;100.00;100735.03;5092470;28;20058;-68
2021/11/14 06:45:35;;;;;;;113.22;34.78;;;;;;;4.94;100.00;100737.81;5092419;28;20044;-68
2021/11/14 06:48:05;;;;;;;122.22;36.58;;;;;;;4.98;100.00;100737.69;5092693;28;20101;-68
2021/11/14 06:50:33;;;;;;;125.35;34.67;;;;;;;5.01;100.00;100732.28;5092338;28;20074;-69
2021/11/14 06:53:02;;;;;;;134.07;38.67;;;;;;;5.00;100.00;100733.19;5092770;28;20058;-68
2021/11/14 06:55:31;;;;;;;125.97;37.83;;;;;;;4.87;100.00;100742.41;5093753;28;20123;-68
2021/11/14 06:58:00;;;;;;;123.15;38.05;;;;;;;4.94;100.00;100732.53;5095864;28;20564;-69
2021/11/14 07:00:30;;;;;;;127.50;38.70;;;;;;;5.00;100.00;100733.19;5095907;28;20047;-69
2021/11/14 07:03:00;;;;;;;125.22;37.67;;;;;;;4.95;100.00;100748.34;5096323;28;20097;-68
2021/11/14 07:05:29;;;;;;;121.78;36.75;;;;;;;5.02;100.00;100744.63;5095616;28;20059;-69
2021/11/14 07:07:57;;;;;;;110.32;37.22;;;;;;;5.13;100.00;100733.72;5096083;28;20044;-67
2021/11/14 07:10:26;;;;;;;120.05;38.50;;;;;;;5.04;100.00;100737.50;5095747;28;20080;-68
2021/11/14 07:12:54;;;;;;;132.52;39.58;;;;;;;5.23;100.00;100742.25;5095927;28;20504;-68
2021/11/14 07:15:22;;;;;;;124.05;37.33;;;;;;;5.25;100.00;100746.56;5095404;28;20040;-75
2021/11/14 07:17:51;;;;;;;126.10;37.85;;;;;;;5.23;100.00;100736.97;5095883;28;20047;-67
2021/11/14 07:20:21;;;;;;;114.43;35.55;;;;;;;5.34;100.00;100735.72;5095701;28;20075;-68
2021/11/14 07:22:49;;;;;;;124.50;36.33;;;;;;;5.40;100.00;100742.56;5095430;28;20447;-68
2021/11/14 07:25:19;;;;;;;128.95;38.58;;;;;;;5.15;100.00;100743.34;5095413;28;20071;-68
2021/11/14 07:27:49;;;;;;;124.65;39.22;;;;;;;5.20;100.00;100737.03;5095416;28;20047;-68
2021/11/14 07:30:19;;;;;;;127.72;39.88;;;;;;;5.36;100.00;100740.94;5095403;28;20047;-68
2021/11/14 07:32:48;;;;;;;139.85;40.33;;;;;;;5.37;100.00;100745.31;5097414;28;20388;-67
2021/11/14 07:35:19;;;;;;;129.10;38.15;;;;;;;5.40;100.00;100746.09;5095607;28;20040;-68
2021/11/14 07:37:49;;;;;;;116.45;35.60;;;;;;;5.49;100.00;100739.63;5095189;28;20040;-70
2021/11/14 07:40:20;;;;;;;127.90;37.90;;;;;;;5.52;100.00;100742.22;5095352;28;20036;-70
2021/11/14 07:42:49;;;;;;;117.07;36.67;;;;;;;5.43;100.00;100734.56;5095266;28;20039;-71
2021/11/14 07:45:21;;;;;;;117.60;35.65;;;;;;;5.45;100.00;100743.31;5095248;28;20043;-71
2021/11/14 07:47:51;;;;;;;116.72;36.95;;;;;;;5.43;100.00;100745.13;5095350;28;20093;-72
2021/11/14 07:50:22;;;;;;;110.55;35.97;;;;;;;5.47;100.00;100747.63;5094967;28;20069;-71
2021/11/14 07:52:52;;;;;;;123.85;37.42;;;;;;;5.40;100.00;100745.22;5095353;28;20381;-71
2021/11/14 07:55:20;;;;;;;116.45;36.45;;;;;;;5.41;100.00;100747.84;5094693;28;20074;-73
2021/11/14 07:57:49;;;;;;;119.00;37.10;;;;;;;5.37;100.00;100742.69;5094488;28;20126;-69
2021/11/14 08:00:19;;;;;;;106.13;33.78;;;;;;;5.49;100.00;100738.78;5094815;28;20397;-70
2021/11/14 08:02:48;;;;;;;107.43;35.05;;;;;;;5.47;100.00;100741.47;5094488;28;20093;-71
2021/11/14 08:05:17;;;;;;;108.55;35.38;;;;;;;5.50;100.00;100746.69;5094966;28;20485;-70
2021/11/14 08:07:47;;;;;;;113.88;36.88;;;;;;;5.41;100.00;100741.69;5093161;28;20052;-69
2021/11/14 08:10:19;;;;;;;120.97;37.38;;;;;;;5.48;100.00;100745.84;5095234;28;20059;-71
2021/11/14 08:12:47;;;;;;;111.10;33.95;;;;;;;5.50;100.00;100745.78;5094321;28;20052;-71
2021/11/14 08:15:16;;;;;;;110.32;36.70;;;;;;;5.41;100.00;100744.31;5094538;28;20050;-70
2021/11/14 08:17:45;;;;;;;117.03;36.45;;;;;;;5.47;100.00;100752.91;5093925;28;20055;-71
2021/11/14 08:20:13;;;;;;;114.47;36.90;;;;;;;5.58;100.00;100754.34;5094583;28;20048;-68
2021/11/14 08:22:42;;;;;;;117.75;36.42;;;;;;;5.66;100.00;100758.50;5094289;28;20058;-69
2021/11/14 08:25:11;;;;;;;111.10;35.55;;;;;;;5.78;100.00;100759.00;5094709;28;20048;-68
2021/11/14 08:27:42;;;;;;;103.90;34.78;;;;;;;5.82;100.00;100758.03;5093827;28;20043;-68
2021/11/14 08:30:13;;;;;;;110.57;35.45;;;;;;;5.69;100.00;100760.16;5094273;28;20408;-68
2021/11/14 08:32:45;;;;;;;94.80;33.10;;;;;;;5.91;100.00;100760.41;5092527;28;20101;-68
2021/11/14 08:35:15;;;;;;;103.38;32.85;;;;;;;6.10;100.00;100758.88;5094223;28;20044;-69
2021/11/14 08:37:43;;;;;;;95.57;32.70;;;;;;;6.05;100.00;100755.50;5093713;28;20048;-74
2021/11/14 08:40:13;;;;;;;100.90;34.72;;;;;;;6.11;100.00;100765.91;5094202;28;20044;-73
2021/11/14 08:42:43;;;;;;;97.35;34.70;;;;;;;6.15;100.00;100771.94;5093920;28;20044;-69
2021/11/14 08:45:12;;;;;;;107.93;36.55;;;;;;;6.12;100.00;100780.88;5093877;28;20477;-67
2021/11/14 08:47:41;;;;;;;101.05;34.58;;;;;;;6.24;100.00;100788.38;5093731;28;20064;-67
2021/11/14 08:50:12;;;;;;;91.80;34.50;;;;;;;6.19;100.00;100784.19;5092765;28;20059;-70
2021/11/14 08:52:45;;;;;;;104.78;33.03;;;;;;;6.41;100.00;100773.72;5091277;28;20093;-70
2021/11/14 08:55:16;;;;;;;95.13;33.97;;;;;;;6.47;100.00;100770.84;5093381;28;20525;-73
2021/11/14 08:57:47;;;;;;;95.00;36.08;;;;;;;6.54;100.00;100780.31;5092353;28;20050;-70
2021/11/14 09:00:20;;;;;;;96.55;35.65;;;;;;;6.75;100.00;100779.53;5092917;28;20144;-71
2021/11/14 09:02:49;;;;;;;94.78;33.85;;;;;;;6.82;100.00;100780.19;5092421;28;20113;-71
2021/11/14 09:05:20;;;;;;;98.30;35.80;;;;;;;6.55;100.00;100780.25;5092871;28;20055;-71
2021/11/14 09:07:50;;;;;;;;;;;;;;;6.59;100.00;100783.69;5092828;28;20040;-70
2021/11/14 09:10:19;;;;;;;90.47;33.17;;;;;;;6.71;100.00;100777.94;5092703;28;19928;-70
2021/11/14 09:12:50;;;;;;;93.22;33.92;;;;;;;6.75;100.00;100787.47;5092228;28;20044;-70
2021/11/14 09:15:19;;;;;;;99.15;36.67;;;;;;;6.67;100.00;100791.38;5092441;28;20052;-70
2021/11/14 09:18:08;;;;;;;94.28;35.15;;;;;;;6.79;100.00;100789.13;5092200;28;20051;-70
2021/11/14 09:20:39;;;;;;;90.05;35.10;;;;;;;7.00;100.00;100791.91;5091840;28;20047;-71
2021/11/14 09:23:08;;;;;;;90.00;33.25;;;;;;;7.04;100.00;100793.50;5092585;28;20131;-70
2021/11/14 09:25:42;;;;;;;94.05;35.38;;;;;;;7.07;100.00;100793.44;5092615;28;20496;-70
2021/11/14 09:28:14;;;;;;;102.95;37.50;;;;;;;6.98;100.00;100789.31;5091124;28;20063;-70
2021/11/14 09:30:44;;;;;;;85.70;33.85;;;;;;;7.14;100.00;100792.25;5092262;28;20094;-70
2021/11/14 09:33:13;;;;;;;88.68;33.35;;;;;;;7.18;100.00;100789.44;5092128;28;20397;-70
2021/11/14 09:35:41;;;;;;;94.85;35.95;;;;;;;6.98;100.00;100791.13;5092151;28;20111;-67
2021/11/14 09:38:10;;;;;;;100.78;36.72;;;;;;;7.09;100.00;100796.88;5091731;28;20457;-68
2021/11/14 09:40:39;;;;;;;86.65;33.55;;;;;;;7.13;100.00;100795.81;5092227;28;20040;-75
2021/11/14 09:43:12;;;;;;;94.13;35.55;;;;;;;7.07;100.00;100796.94;5092375;28;20085;-69
2021/11/14 09:45:42;;;;;;;95.40;38.22;;;;;;;7.15;100.00;100792.22;5091657;28;20036;-69
2021/11/14 09:48:11;;;;;;;101.43;35.70;;;;;;;7.26;100.00;100783.84;5092088;28;20047;-69
2021/11/14 09:50:39;;;;;;;93.93;35.03;;;;;;;7.11;100.00;100792.38;5091733;28;20040;-73
2021/11/14 09:53:08;;;;;;;89.82;35.42;;;;;;;7.15;100.00;100792.22;5092269;28;20040;-69
2021/11/14 09:55:37;;;;;;;89.63;35.60;;;;;;;7.16;100.00;100796.59;5092554;28;20491;-69
2021/11/14 09:58:06;;;;;;;101.13;37.13;;;;;;;7.26;100.00;100790.94;5092378;28;20044;-69
2021/11/14 10:00:36;;;;;;;94.88;34.83;;;;;;;7.26;100.00;100793.59;5093168;28;20044;-69
2021/11/14 10:03:07;;;;;;;95.63;35.42;;;;;;;7.25;100.00;100790.09;5093084;28;20499;-69
2021/11/14 10:05:37;;;;;;;92.03;35.03;;;;;;;7.36;100.00;100782.56;5093592;28;20108;-69
2021/11/14 10:08:08;;;;;;;92.53;35.80;;;;;;;7.49;100.00;100787.41;5093333;28;20041;-69
2021/11/14 10:10:40;;;;;;;92.93;34.28;;;;;;;7.42;100.00;100792.06;5093102;28;20487;-69
2021/11/14 10:13:17;;;;;;;93.00;35.63;;;;;;;7.47;100.00;100785.69;5092915;28;20044;-68
2021/11/14 10:15:48;;;;;;;89.00;36.30;;;;;;;7.51;100.00;100785.53;5092852;28;20109;-69
2021/11/14 10:18:21;;;;;;;90.68;35.75;;;;;;;7.56;100.00;100788.91;5092973;28;20539;-69
2021/11/14 10:20:52;;;;;;;93.93;35.60;;;;;;;7.54;100.00;100775.69;5092818;28;20527;-69
2021/11/14 10:23:21;;;;;;;92.40;33.72;;;;;;;7.76;100.00;100775.69;5092849;28;20046;-69
2021/11/14 10:25:52;;;;;;;85.40;34.50;;;;;;;7.80;100.00;100777.28;5092472;28;20489;-69
2021/11/14 10:28:21;;;;;;;83.30;33.83;;;;;;;7.50;100.00;100786.47;5093135;28;20048;-69
2021/11/14 10:30:53;;;;;;;94.15;35.75;;;;;;;7.50;100.00;100782.03;5094955;28;20040;-69
2021/11/14 10:33:23;;;;;;;92.28;36.17;;;;;;;7.62;100.00;100788.63;5096604;28;20541;-69
2021/11/14 10:35:55;;;;;;;89.78;35.92;;;;;;;7.64;100.00;100777.06;5096544;28;20127;-69
2021/11/14 10:38:25;;;;;;;83.68;34.25;;;;;;;7.40;100.00;100783.31;5096510;28;20043;-69
2021/11/14 10:40:57;;;;;;;92.72;34.47;;;;;;;7.60;100.00;100775.44;5096414;28;20443;-69
2021/11/14 10:43:27;;;;;;;89.60;35.75;;;;;;;7.64;100.00;100776.19;5096455;28;20036;-69
2021/11/14 10:45:58;;;;;;;93.60;34.00;;;;;;;7.80;100.00;100776.41;5096430;28;20070;-69
2021/11/14 10:48:30;;;;;;;95.85;38.00;;;;;;;7.78;100.00;100779.16;5096505;28;20044;-69
2021/11/14 10:51:02;;;;;;;87.20;34.67;;;;;;;7.90;100.00;100773.31;5096315;28;20047;-69
2021/11/14 10:53:33;;;;;;;92.03;35.72;;;;;;;7.92;100.00;100775.94;5096623;28;20044;-69
2021/11/14 10:56:04;;;;;;;87.18;35.45;;;;;;;7.96;100.00;100766.91;5096231;28;20440;-69
2021/11/14 10:58:35;;;;;;;90.68;37.05;;;;;;;7.99;100.00;100756.16;5096227;28;20138;-68
2021/11/14 11:01:08;;;;;;;98.15;38.08;;;;;;;7.94;100.00;100769.63;5095907;28;20554;-69
2021/11/14 11:03:40;;;;;;;88.35;35.00;;;;;;;8.01;100.00;100760.50;5096019;28;20075;-69
2021/11/14 11:06:10;;;;;;;86.63;35.42;;;;;;;8.15;100.00;100759.03;5096033;28;20044;-69
2021/11/14 11:08:38;;;;;;;89.28;36.65;;;;;;;8.07;100.00;100759.34;5094488;28;20558;-69
2021/11/14 11:11:27;;;;;;;86.10;35.15;;;;;;;8.01;100.00;100751.66;5096071;28;20067;-71
2021/11/14 11:13:56;;;;;;;85.82;34.38;;;;;;;7.96;100.00;100743.88;5095412;28;20075;-69
2021/11/14 11:16:26;;;;;;;88.43;35.60;;;;;;;8.08;100.00;100749.59;5099111;28;20048;-70